sensor_id;sensor_type;location;lat;lon;timestamp;temperature;humidity
10644;DHT22;5370;50.132;8.626;2023-09-30T00:00:14;17.80;73.60
10644;DHT22;5370;50.132;8.626;2023-09-30T00:02:40;17.70;73.80
10644;DHT22;5370;50.132;8.626;2023-09-30T00:05:06;17.70;74.30
10644;DHT22;5370;50.132;8.626;2023-09-30T00:07:33;17.70;74.80
10644;DHT22;5370;50.132;8.626;2023-09-30T00:09:59;17.60;75.40
10644;DHT22;5370;50.132;8.626;2023-09-30T00:12:25;17.60;75.80
10644;DHT22;5370;50.132;8.626;2023-09-30T00:14:50;17.60;76.30
10644;DHT22;5370;50.132;8.626;2023-09-30T00:17:16;17.60;76.70
10644;DHT22;5370;50.132;8.626;2023-09-30T00:19:41;17.50;76.80
10644;DHT22;5370;50.132;8.626;2023-09-30T00:22:07;17.50;77.20
10644;DHT22;5370;50.132;8.626;2023-09-30T00:24:33;17.40;77.40
10644;DHT22;5370;50.132;8.626;2023-09-30T00:26:59;17.40;77.80
10644;DHT22;5370;50.132;8.626;2023-09-30T00:29:24;17.40;78.40
10644;DHT22;5370;50.132;8.626;2023-09-30T00:31:51;17.40;78.70
10644;DHT22;5370;50.132;8.626;2023-09-30T00:34:17;17.30;78.90
10644;DHT22;5370;50.132;8.626;2023-09-30T00:36:43;17.40;79.20
10644;DHT22;5370;50.132;8.626;2023-09-30T00:39:08;17.30;79.40
10644;DHT22;5370;50.132;8.626;2023-09-30T00:41:35;17.30;79.80
10644;DHT22;5370;50.132;8.626;2023-09-30T00:44:02;17.30;80.20
10644;DHT22;5370;50.132;8.626;2023-09-30T00:46:36;17.20;80.60
10644;DHT22;5370;50.132;8.626;2023-09-30T00:49:03;17.20;81.10
10644;DHT22;5370;50.132;8.626;2023-09-30T00:51:29;17.20;81.30
10644;DHT22;5370;50.132;8.626;2023-09-30T00:53:57;17.20;81.60
10644;DHT22;5370;50.132;8.626;2023-09-30T00:56:26;17.20;82.00
10644;DHT22;5370;50.132;8.626;2023-09-30T00:58:52;17.20;82.20
10644;DHT22;5370;50.132;8.626;2023-09-30T01:01:19;17.10;82.40
10644;DHT22;5370;50.132;8.626;2023-09-30T01:03:46;17.10;82.70
10644;DHT22;5370;50.132;8.626;2023-09-30T01:06:12;17.10;82.90
10644;DHT22;5370;50.132;8.626;2023-09-30T01:08:38;17.10;83.20
10644;DHT22;5370;50.132;8.626;2023-09-30T01:11:04;17.00;83.50
10644;DHT22;5370;50.132;8.626;2023-09-30T01:13:37;17.00;83.90
10644;DHT22;5370;50.132;8.626;2023-09-30T01:16:07;17.00;84.40
10644;DHT22;5370;50.132;8.626;2023-09-30T01:18:35;16.90;84.70
10644;DHT22;5370;50.132;8.626;2023-09-30T01:21:03;16.90;85.00
10644;DHT22;5370;50.132;8.626;2023-09-30T01:23:31;16.90;85.50
10644;DHT22;5370;50.132;8.626;2023-09-30T01:25:56;16.90;85.90
10644;DHT22;5370;50.132;8.626;2023-09-30T01:28:22;16.80;86.30
10644;DHT22;5370;50.132;8.626;2023-09-30T01:30:48;16.80;86.60
10644;DHT22;5370;50.132;8.626;2023-09-30T01:33:14;16.80;86.90
10644;DHT22;5370;50.132;8.626;2023-09-30T01:35:42;16.80;87.10
10644;DHT22;5370;50.132;8.626;2023-09-30T01:38:07;16.80;87.40
10644;DHT22;5370;50.132;8.626;2023-09-30T01:40:33;16.90;87.70
10644;DHT22;5370;50.132;8.626;2023-09-30T01:42:58;16.90;87.80
10644;DHT22;5370;50.132;8.626;2023-09-30T01:45:24;16.90;87.70
10644;DHT22;5370;50.132;8.626;2023-09-30T01:47:49;16.90;87.80
10644;DHT22;5370;50.132;8.626;2023-09-30T01:50:15;16.80;87.60
10644;DHT22;5370;50.132;8.626;2023-09-30T01:52:40;16.80;87.60
10644;DHT22;5370;50.132;8.626;2023-09-30T01:55:06;16.80;87.30
10644;DHT22;5370;50.132;8.626;2023-09-30T01:57:31;16.80;86.90
10644;DHT22;5370;50.132;8.626;2023-09-30T01:59:57;16.70;86.50
10644;DHT22;5370;50.132;8.626;2023-09-30T02:02:23;16.70;86.00
10644;DHT22;5370;50.132;8.626;2023-09-30T02:04:48;16.70;85.90
10644;DHT22;5370;50.132;8.626;2023-09-30T02:07:14;16.60;85.20
10644;DHT22;5370;50.132;8.626;2023-09-30T02:09:39;16.50;84.60
10644;DHT22;5370;50.132;8.626;2023-09-30T02:12:05;16.50;84.20
10644;DHT22;5370;50.132;8.626;2023-09-30T02:14:33;16.40;83.80
10644;DHT22;5370;50.132;8.626;2023-09-30T02:16:58;16.30;83.40
10644;DHT22;5370;50.132;8.626;2023-09-30T02:19:24;16.30;83.30
10644;DHT22;5370;50.132;8.626;2023-09-30T02:21:50;16.30;82.90
10644;DHT22;5370;50.132;8.626;2023-09-30T02:24:15;16.20;82.50
10644;DHT22;5370;50.132;8.626;2023-09-30T02:26:41;16.10;82.30
10644;DHT22;5370;50.132;8.626;2023-09-30T02:29:06;16.10;81.90
10644;DHT22;5370;50.132;8.626;2023-09-30T02:31:35;16.00;81.60
10644;DHT22;5370;50.132;8.626;2023-09-30T02:34:00;16.00;81.40
10644;DHT22;5370;50.132;8.626;2023-09-30T02:36:27;15.90;81.10
10644;DHT22;5370;50.132;8.626;2023-09-30T02:38:53;15.90;81.20
10644;DHT22;5370;50.132;8.626;2023-09-30T02:41:19;15.80;81.30
10644;DHT22;5370;50.132;8.626;2023-09-30T02:43:44;15.80;81.60
10644;DHT22;5370;50.132;8.626;2023-09-30T02:46:10;15.70;81.80
10644;DHT22;5370;50.132;8.626;2023-09-30T02:48:35;15.70;82.00
10644;DHT22;5370;50.132;8.626;2023-09-30T02:51:01;15.70;82.30
10644;DHT22;5370;50.132;8.626;2023-09-30T02:53:26;15.60;82.30
10644;DHT22;5370;50.132;8.626;2023-09-30T02:55:53;15.60;82.50
10644;DHT22;5370;50.132;8.626;2023-09-30T02:58:23;15.60;82.70
10644;DHT22;5370;50.132;8.626;2023-09-30T03:00:49;15.60;83.00
10644;DHT22;5370;50.132;8.626;2023-09-30T03:03:15;15.60;83.20
10644;DHT22;5370;50.132;8.626;2023-09-30T03:05:40;15.60;83.30
10644;DHT22;5370;50.132;8.626;2023-09-30T03:08:06;15.60;83.40
10644;DHT22;5370;50.132;8.626;2023-09-30T03:10:32;15.50;83.50
10644;DHT22;5370;50.132;8.626;2023-09-30T03:12:57;15.50;83.70
10644;DHT22;5370;50.132;8.626;2023-09-30T03:15:29;15.50;83.70
10644;DHT22;5370;50.132;8.626;2023-09-30T03:17:58;15.40;83.80
10644;DHT22;5370;50.132;8.626;2023-09-30T03:20:25;15.40;84.20
10644;DHT22;5370;50.132;8.626;2023-09-30T03:22:51;15.40;84.30
10644;DHT22;5370;50.132;8.626;2023-09-30T03:25:19;15.40;84.60
10644;DHT22;5370;50.132;8.626;2023-09-30T03:27:45;15.30;84.50
10644;DHT22;5370;50.132;8.626;2023-09-30T03:30:15;15.30;84.70
10644;DHT22;5370;50.132;8.626;2023-09-30T03:32:44;15.30;85.00
10644;DHT22;5370;50.132;8.626;2023-09-30T03:35:11;15.30;85.20
10644;DHT22;5370;50.132;8.626;2023-09-30T03:37:40;15.20;85.20
10644;DHT22;5370;50.132;8.626;2023-09-30T03:40:07;15.20;85.30
10644;DHT22;5370;50.132;8.626;2023-09-30T03:42:46;15.10;85.40
10644;DHT22;5370;50.132;8.626;2023-09-30T03:45:14;15.10;85.60
10644;DHT22;5370;50.132;8.626;2023-09-30T03:47:41;15.10;86.00
10644;DHT22;5370;50.132;8.626;2023-09-30T03:50:07;15.10;86.30
10644;DHT22;5370;50.132;8.626;2023-09-30T03:52:39;15.00;86.50
10644;DHT22;5370;50.132;8.626;2023-09-30T03:55:06;15.00;86.80
10644;DHT22;5370;50.132;8.626;2023-09-30T03:57:32;15.00;87.10
10644;DHT22;5370;50.132;8.626;2023-09-30T04:00:02;15.10;87.40
10644;DHT22;5370;50.132;8.626;2023-09-30T04:02:31;15.10;87.70
10644;DHT22;5370;50.132;8.626;2023-09-30T04:04:57;15.10;88.10
10644;DHT22;5370;50.132;8.626;2023-09-30T04:07:24;15.20;88.40
10644;DHT22;5370;50.132;8.626;2023-09-30T04:09:55;15.20;88.50
10644;DHT22;5370;50.132;8.626;2023-09-30T04:12:22;15.20;88.50
10644;DHT22;5370;50.132;8.626;2023-09-30T04:14:49;15.30;88.70
10644;DHT22;5370;50.132;8.626;2023-09-30T04:17:15;15.30;88.80
10644;DHT22;5370;50.132;8.626;2023-09-30T04:19:40;15.30;88.90
10644;DHT22;5370;50.132;8.626;2023-09-30T04:22:06;15.30;88.90
10644;DHT22;5370;50.132;8.626;2023-09-30T04:24:31;15.30;88.90
10644;DHT22;5370;50.132;8.626;2023-09-30T04:26:57;15.30;90.00
10644;DHT22;5370;50.132;8.626;2023-09-30T04:29:28;15.30;90.10
10644;DHT22;5370;50.132;8.626;2023-09-30T04:31:55;15.30;90.40
10644;DHT22;5370;50.132;8.626;2023-09-30T04:34:20;15.40;90.70
10644;DHT22;5370;50.132;8.626;2023-09-30T04:36:47;15.40;90.90
10644;DHT22;5370;50.132;8.626;2023-09-30T04:39:13;15.50;91.20
10644;DHT22;5370;50.132;8.626;2023-09-30T04:41:40;15.50;91.20
10644;DHT22;5370;50.132;8.626;2023-09-30T04:44:06;15.50;91.00
10644;DHT22;5370;50.132;8.626;2023-09-30T04:46:32;15.50;90.80
10644;DHT22;5370;50.132;8.626;2023-09-30T04:48:58;15.50;90.70
10644;DHT22;5370;50.132;8.626;2023-09-30T04:51:23;15.50;90.90
10644;DHT22;5370;50.132;8.626;2023-09-30T04:53:51;15.50;90.90
10644;DHT22;5370;50.132;8.626;2023-09-30T04:56:16;15.50;90.80
10644;DHT22;5370;50.132;8.626;2023-09-30T04:58:42;15.40;90.70
10644;DHT22;5370;50.132;8.626;2023-09-30T05:01:07;15.40;90.90
10644;DHT22;5370;50.132;8.626;2023-09-30T05:03:34;15.40;90.70
10644;DHT22;5370;50.132;8.626;2023-09-30T05:06:00;15.30;90.60
10644;DHT22;5370;50.132;8.626;2023-09-30T05:08:26;15.30;90.60
10644;DHT22;5370;50.132;8.626;2023-09-30T05:10:54;15.30;90.70
10644;DHT22;5370;50.132;8.626;2023-09-30T05:13:21;15.30;90.70
10644;DHT22;5370;50.132;8.626;2023-09-30T05:15:49;15.30;90.70
10644;DHT22;5370;50.132;8.626;2023-09-30T05:18:14;15.30;90.80
10644;DHT22;5370;50.132;8.626;2023-09-30T05:20:40;15.30;90.90
10644;DHT22;5370;50.132;8.626;2023-09-30T05:23:06;15.30;90.90
10644;DHT22;5370;50.132;8.626;2023-09-30T05:25:37;15.30;91.00
10644;DHT22;5370;50.132;8.626;2023-09-30T05:28:03;15.30;91.00
10644;DHT22;5370;50.132;8.626;2023-09-30T05:30:31;15.30;91.00
10644;DHT22;5370;50.132;8.626;2023-09-30T05:32:56;15.20;90.90
10644;DHT22;5370;50.132;8.626;2023-09-30T05:35:23;15.10;90.90
10644;DHT22;5370;50.132;8.626;2023-09-30T05:37:49;15.10;90.90
10644;DHT22;5370;50.132;8.626;2023-09-30T05:40:17;15.00;90.90
10644;DHT22;5370;50.132;8.626;2023-09-30T05:42:47;15.00;91.10
10644;DHT22;5370;50.132;8.626;2023-09-30T05:45:14;14.90;91.20
10644;DHT22;5370;50.132;8.626;2023-09-30T05:47:41;14.80;91.20
10644;DHT22;5370;50.132;8.626;2023-09-30T05:50:07;14.80;91.50
10644;DHT22;5370;50.132;8.626;2023-09-30T05:52:34;14.80;91.80
10644;DHT22;5370;50.132;8.626;2023-09-30T05:55:01;14.70;92.00
10644;DHT22;5370;50.132;8.626;2023-09-30T05:57:28;14.70;92.30
10644;DHT22;5370;50.132;8.626;2023-09-30T05:59:54;14.70;92.60
10644;DHT22;5370;50.132;8.626;2023-09-30T06:02:19;14.80;92.90
10644;DHT22;5370;50.132;8.626;2023-09-30T06:04:45;14.80;93.00
10644;DHT22;5370;50.132;8.626;2023-09-30T06:07:11;14.80;92.90
10644;DHT22;5370;50.132;8.626;2023-09-30T06:09:37;14.80;92.90
10644;DHT22;5370;50.132;8.626;2023-09-30T06:12:03;14.80;92.90
10644;DHT22;5370;50.132;8.626;2023-09-30T06:14:32;14.90;93.00
10644;DHT22;5370;50.132;8.626;2023-09-30T06:16:57;14.90;93.00
10644;DHT22;5370;50.132;8.626;2023-09-30T06:19:23;14.90;93.00
10644;DHT22;5370;50.132;8.626;2023-09-30T06:21:51;14.90;93.10
10644;DHT22;5370;50.132;8.626;2023-09-30T06:24:17;15.00;93.20
10644;DHT22;5370;50.132;8.626;2023-09-30T06:26:45;15.00;93.20
10644;DHT22;5370;50.132;8.626;2023-09-30T06:29:11;15.10;93.30
10644;DHT22;5370;50.132;8.626;2023-09-30T06:31:37;15.20;93.40
10644;DHT22;5370;50.132;8.626;2023-09-30T06:34:03;15.40;93.70
10644;DHT22;5370;50.132;8.626;2023-09-30T06:36:29;15.50;94.10
10644;DHT22;5370;50.132;8.626;2023-09-30T06:38:55;15.60;94.00
10644;DHT22;5370;50.132;8.626;2023-09-30T06:41:20;15.70;93.70
10644;DHT22;5370;50.132;8.626;2023-09-30T06:43:46;15.80;93.40
10644;DHT22;5370;50.132;8.626;2023-09-30T06:46:12;15.90;93.40
10644;DHT22;5370;50.132;8.626;2023-09-30T06:48:39;15.90;93.20
10644;DHT22;5370;50.132;8.626;2023-09-30T06:51:06;16.00;93.10
10644;DHT22;5370;50.132;8.626;2023-09-30T06:53:31;16.00;93.00
10644;DHT22;5370;50.132;8.626;2023-09-30T06:55:57;16.00;92.80
10644;DHT22;5370;50.132;8.626;2023-09-30T06:58:23;16.00;92.70
10644;DHT22;5370;50.132;8.626;2023-09-30T07:00:52;16.00;92.50
10644;DHT22;5370;50.132;8.626;2023-09-30T07:03:19;16.00;92.40
10644;DHT22;5370;50.132;8.626;2023-09-30T07:05:45;16.10;92.30
10644;DHT22;5370;50.132;8.626;2023-09-30T07:08:11;16.10;92.20
10644;DHT22;5370;50.132;8.626;2023-09-30T07:10:37;16.10;91.90
10644;DHT22;5370;50.132;8.626;2023-09-30T07:13:03;16.10;91.60
10644;DHT22;5370;50.132;8.626;2023-09-30T07:15:29;16.10;91.50
10644;DHT22;5370;50.132;8.626;2023-09-30T07:17:55;16.10;91.50
10644;DHT22;5370;50.132;8.626;2023-09-30T07:20:21;16.10;91.40
10644;DHT22;5370;50.132;8.626;2023-09-30T07:22:48;16.20;91.60
10644;DHT22;5370;50.132;8.626;2023-09-30T07:25:13;16.20;91.80
10644;DHT22;5370;50.132;8.626;2023-09-30T07:27:42;16.30;91.80
10644;DHT22;5370;50.132;8.626;2023-09-30T07:30:08;16.40;91.60
10644;DHT22;5370;50.132;8.626;2023-09-30T07:32:35;16.50;91.30
10644;DHT22;5370;50.132;8.626;2023-09-30T07:35:00;16.50;91.20
10644;DHT22;5370;50.132;8.626;2023-09-30T07:37:26;16.60;90.70
10644;DHT22;5370;50.132;8.626;2023-09-30T07:39:52;16.60;90.60
10644;DHT22;5370;50.132;8.626;2023-09-30T07:42:18;16.70;90.60
10644;DHT22;5370;50.132;8.626;2023-09-30T07:44:43;16.70;90.70
10644;DHT22;5370;50.132;8.626;2023-09-30T07:47:09;16.80;90.30
10644;DHT22;5370;50.132;8.626;2023-09-30T07:49:34;16.90;90.00
10644;DHT22;5370;50.132;8.626;2023-09-30T07:52:00;16.90;88.60
10644;DHT22;5370;50.132;8.626;2023-09-30T07:54:26;16.90;87.80
10644;DHT22;5370;50.132;8.626;2023-09-30T07:56:51;16.90;87.00
10644;DHT22;5370;50.132;8.626;2023-09-30T07:59:17;17.00;86.70
10644;DHT22;5370;50.132;8.626;2023-09-30T08:01:43;17.00;85.80
10644;DHT22;5370;50.132;8.626;2023-09-30T08:04:08;17.10;85.30
10644;DHT22;5370;50.132;8.626;2023-09-30T08:06:34;17.20;84.70
10644;DHT22;5370;50.132;8.626;2023-09-30T08:09:00;17.40;83.50
10644;DHT22;5370;50.132;8.626;2023-09-30T08:11:25;17.50;82.80
10644;DHT22;5370;50.132;8.626;2023-09-30T08:13:56;17.60;82.00
10644;DHT22;5370;50.132;8.626;2023-09-30T08:16:21;17.70;81.40
10644;DHT22;5370;50.132;8.626;2023-09-30T08:18:47;17.80;80.10
10644;DHT22;5370;50.132;8.626;2023-09-30T08:21:12;17.80;79.40
10644;DHT22;5370;50.132;8.626;2023-09-30T08:23:38;17.80;79.00
10644;DHT22;5370;50.132;8.626;2023-09-30T08:26:05;17.80;79.00
10644;DHT22;5370;50.132;8.626;2023-09-30T08:28:31;17.90;78.60
10644;DHT22;5370;50.132;8.626;2023-09-30T08:31:04;18.10;78.20
10644;DHT22;5370;50.132;8.626;2023-09-30T08:33:31;18.30;76.20
10644;DHT22;5370;50.132;8.626;2023-09-30T08:36:04;18.40;74.90
10644;DHT22;5370;50.132;8.626;2023-09-30T08:38:38;18.60;75.30
10644;DHT22;5370;50.132;8.626;2023-09-30T08:41:04;18.90;74.10
10644;DHT22;5370;50.132;8.626;2023-09-30T08:43:30;19.10;72.40
10644;DHT22;5370;50.132;8.626;2023-09-30T08:45:58;19.20;71.50
10644;DHT22;5370;50.132;8.626;2023-09-30T08:48:24;19.20;71.00
10644;DHT22;5370;50.132;8.626;2023-09-30T08:50:53;19.20;71.00
10644;DHT22;5370;50.132;8.626;2023-09-30T08:53:19;19.40;71.40
10644;DHT22;5370;50.132;8.626;2023-09-30T08:55:46;20.00;70.80
10644;DHT22;5370;50.132;8.626;2023-09-30T08:58:13;20.80;68.90
10644;DHT22;5370;50.132;8.626;2023-09-30T09:00:39;21.60;66.80
10644;DHT22;5370;50.132;8.626;2023-09-30T09:03:07;22.40;64.70
10644;DHT22;5370;50.132;8.626;2023-09-30T09:05:32;23.20;61.10
10644;DHT22;5370;50.132;8.626;2023-09-30T09:07:58;23.70;58.10
10644;DHT22;5370;50.132;8.626;2023-09-30T09:10:24;23.90;56.10
10644;DHT22;5370;50.132;8.626;2023-09-30T09:12:55;24.10;55.70
10644;DHT22;5370;50.132;8.626;2023-09-30T09:15:26;24.20;54.60
10644;DHT22;5370;50.132;8.626;2023-09-30T09:17:52;24.20;54.60
10644;DHT22;5370;50.132;8.626;2023-09-30T09:20:25;24.10;54.30
10644;DHT22;5370;50.132;8.626;2023-09-30T09:22:55;23.80;53.10
10644;DHT22;5370;50.132;8.626;2023-09-30T09:25:22;23.40;53.50
10644;DHT22;5370;50.132;8.626;2023-09-30T09:27:51;23.10;54.10
10644;DHT22;5370;50.132;8.626;2023-09-30T09:30:17;22.80;54.40
10644;DHT22;5370;50.132;8.626;2023-09-30T09:33:03;22.60;54.90
10644;DHT22;5370;50.132;8.626;2023-09-30T09:35:34;22.30;54.90
10644;DHT22;5370;50.132;8.626;2023-09-30T09:38:07;22.00;55.00
10644;DHT22;5370;50.132;8.626;2023-09-30T09:40:34;21.70;55.40
10644;DHT22;5370;50.132;8.626;2023-09-30T09:43:01;21.40;55.80
10644;DHT22;5370;50.132;8.626;2023-09-30T09:45:29;21.30;56.10
10644;DHT22;5370;50.132;8.626;2023-09-30T09:47:58;21.10;56.10
10644;DHT22;5370;50.132;8.626;2023-09-30T09:50:24;21.00;56.00
10644;DHT22;5370;50.132;8.626;2023-09-30T09:52:53;20.80;56.00
10644;DHT22;5370;50.132;8.626;2023-09-30T09:55:21;20.70;56.10
10644;DHT22;5370;50.132;8.626;2023-09-30T09:57:48;20.70;56.30
10644;DHT22;5370;50.132;8.626;2023-09-30T10:00:19;20.60;56.60
10644;DHT22;5370;50.132;8.626;2023-09-30T10:02:46;20.60;56.20
10644;DHT22;5370;50.132;8.626;2023-09-30T10:05:13;20.60;56.30
10644;DHT22;5370;50.132;8.626;2023-09-30T10:08:05;20.60;56.30
10644;DHT22;5370;50.132;8.626;2023-09-30T10:10:36;20.70;56.20
10644;DHT22;5370;50.132;8.626;2023-09-30T10:13:02;20.70;56.20
10644;DHT22;5370;50.132;8.626;2023-09-30T10:18:09;20.80;55.70
10644;DHT22;5370;50.132;8.626;2023-09-30T10:20:38;20.90;55.40
10644;DHT22;5370;50.132;8.626;2023-09-30T10:23:28;21.00;55.00
10644;DHT22;5370;50.132;8.626;2023-09-30T10:28:46;21.10;54.00
10644;DHT22;5370;50.132;8.626;2023-09-30T10:31:19;21.20;54.30
10644;DHT22;5370;50.132;8.626;2023-09-30T10:36:30;21.40;54.40
10644;DHT22;5370;50.132;8.626;2023-09-30T10:38:56;21.40;53.70
10644;DHT22;5370;50.132;8.626;2023-09-30T10:46:52;21.50;51.50
10644;DHT22;5370;50.132;8.626;2023-09-30T10:51:46;21.70;51.20
10644;DHT22;5370;50.132;8.626;2023-09-30T10:54:13;21.80;50.70
10644;DHT22;5370;50.132;8.626;2023-09-30T10:56:38;21.80;50.40
10644;DHT22;5370;50.132;8.626;2023-09-30T10:59:04;21.90;50.10
10644;DHT22;5370;50.132;8.626;2023-09-30T11:01:33;21.90;49.30
10644;DHT22;5370;50.132;8.626;2023-09-30T11:04:01;21.80;49.30
10644;DHT22;5370;50.132;8.626;2023-09-30T11:06:29;21.90;49.60
10644;DHT22;5370;50.132;8.626;2023-09-30T11:08:56;21.80;48.80
10644;DHT22;5370;50.132;8.626;2023-09-30T11:14:03;21.70;48.60
10644;DHT22;5370;50.132;8.626;2023-09-30T11:16:41;21.60;48.20
10644;DHT22;5370;50.132;8.626;2023-09-30T11:19:06;21.60;48.50
10644;DHT22;5370;50.132;8.626;2023-09-30T11:21:33;21.70;49.00
10644;DHT22;5370;50.132;8.626;2023-09-30T11:24:00;21.70;49.20
10644;DHT22;5370;50.132;8.626;2023-09-30T11:26:30;21.90;49.00
10644;DHT22;5370;50.132;8.626;2023-09-30T11:29:09;21.80;48.90
10644;DHT22;5370;50.132;8.626;2023-09-30T11:31:46;21.90;49.10
10644;DHT22;5370;50.132;8.626;2023-09-30T11:34:15;21.90;48.70
10644;DHT22;5370;50.132;8.626;2023-09-30T11:36:51;22.00;48.30
10644;DHT22;5370;50.132;8.626;2023-09-30T11:39:27;21.90;47.60
10644;DHT22;5370;50.132;8.626;2023-09-30T11:41:53;21.90;47.50
10644;DHT22;5370;50.132;8.626;2023-09-30T11:44:21;22.00;47.80
10644;DHT22;5370;50.132;8.626;2023-09-30T11:52:04;22.00;47.10
10644;DHT22;5370;50.132;8.626;2023-09-30T11:54:35;21.90;47.20
10644;DHT22;5370;50.132;8.626;2023-09-30T11:57:04;21.90;47.80
10644;DHT22;5370;50.132;8.626;2023-09-30T11:59:30;22.00;47.70
10644;DHT22;5370;50.132;8.626;2023-09-30T12:01:57;22.10;47.80
10644;DHT22;5370;50.132;8.626;2023-09-30T12:04:23;22.30;47.80
10644;DHT22;5370;50.132;8.626;2023-09-30T12:06:49;22.40;47.70
10644;DHT22;5370;50.132;8.626;2023-09-30T12:09:16;22.40;47.00
10644;DHT22;5370;50.132;8.626;2023-09-30T12:11:51;22.50;46.60
10644;DHT22;5370;50.132;8.626;2023-09-30T12:14:16;22.50;46.50
10644;DHT22;5370;50.132;8.626;2023-09-30T12:16:43;22.50;46.40
10644;DHT22;5370;50.132;8.626;2023-09-30T12:19:13;22.60;45.90
10644;DHT22;5370;50.132;8.626;2023-09-30T12:21:39;22.60;45.00
10644;DHT22;5370;50.132;8.626;2023-09-30T12:24:06;22.70;43.90
10644;DHT22;5370;50.132;8.626;2023-09-30T12:26:33;22.70;43.40
10644;DHT22;5370;50.132;8.626;2023-09-30T12:28:59;22.70;43.20
10644;DHT22;5370;50.132;8.626;2023-09-30T12:31:25;22.70;42.90
10644;DHT22;5370;50.132;8.626;2023-09-30T12:33:50;22.80;43.00
10644;DHT22;5370;50.132;8.626;2023-09-30T12:36:18;22.80;42.20
10644;DHT22;5370;50.132;8.626;2023-09-30T12:38:43;22.80;41.90
10644;DHT22;5370;50.132;8.626;2023-09-30T12:41:10;22.90;42.60
10644;DHT22;5370;50.132;8.626;2023-09-30T12:43:35;23.00;42.60
10644;DHT22;5370;50.132;8.626;2023-09-30T12:46:01;23.10;42.10
10644;DHT22;5370;50.132;8.626;2023-09-30T12:48:26;23.10;41.60
10644;DHT22;5370;50.132;8.626;2023-09-30T12:50:58;23.10;41.40
10644;DHT22;5370;50.132;8.626;2023-09-30T12:56:27;23.10;40.30
10644;DHT22;5370;50.132;8.626;2023-09-30T12:58:54;23.00;40.70
10644;DHT22;5370;50.132;8.626;2023-09-30T13:01:20;23.00;40.70
10644;DHT22;5370;50.132;8.626;2023-09-30T13:03:46;23.00;40.70
10644;DHT22;5370;50.132;8.626;2023-09-30T13:06:13;23.10;40.10
10644;DHT22;5370;50.132;8.626;2023-09-30T13:08:39;23.10;40.10
10644;DHT22;5370;50.132;8.626;2023-09-30T13:11:05;23.20;40.40
10644;DHT22;5370;50.132;8.626;2023-09-30T13:13:32;23.20;40.40
10644;DHT22;5370;50.132;8.626;2023-09-30T13:15:59;23.30;40.40
10644;DHT22;5370;50.132;8.626;2023-09-30T13:18:25;23.40;40.70
10644;DHT22;5370;50.132;8.626;2023-09-30T13:24:13;23.60;40.50
10644;DHT22;5370;50.132;8.626;2023-09-30T13:30:01;23.60;40.00
10644;DHT22;5370;50.132;8.626;2023-09-30T13:32:27;23.60;40.00
10644;DHT22;5370;50.132;8.626;2023-09-30T13:38:14;23.50;40.00
10644;DHT22;5370;50.132;8.626;2023-09-30T13:40:41;23.50;40.50
10644;DHT22;5370;50.132;8.626;2023-09-30T13:43:07;23.50;40.50
10644;DHT22;5370;50.132;8.626;2023-09-30T13:45:33;23.50;41.00
10644;DHT22;5370;50.132;8.626;2023-09-30T13:47:59;23.50;40.30
10644;DHT22;5370;50.132;8.626;2023-09-30T13:50:25;23.60;40.00
10644;DHT22;5370;50.132;8.626;2023-09-30T13:52:50;23.50;39.80
10644;DHT22;5370;50.132;8.626;2023-09-30T13:55:16;23.40;39.90
10644;DHT22;5370;50.132;8.626;2023-09-30T13:57:47;23.40;40.10
10644;DHT22;5370;50.132;8.626;2023-09-30T14:00:14;23.40;40.10
10644;DHT22;5370;50.132;8.626;2023-09-30T14:02:40;23.30;40.00
10644;DHT22;5370;50.132;8.626;2023-09-30T14:05:06;23.30;40.00
10644;DHT22;5370;50.132;8.626;2023-09-30T14:07:35;23.20;40.00
10644;DHT22;5370;50.132;8.626;2023-09-30T14:10:02;23.20;40.10
10644;DHT22;5370;50.132;8.626;2023-09-30T14:12:28;23.10;39.50
10644;DHT22;5370;50.132;8.626;2023-09-30T14:14:54;23.00;39.70
10644;DHT22;5370;50.132;8.626;2023-09-30T14:17:20;23.00;40.10
10644;DHT22;5370;50.132;8.626;2023-09-30T14:19:46;23.10;40.50
10644;DHT22;5370;50.132;8.626;2023-09-30T14:22:11;23.10;40.60
10644;DHT22;5370;50.132;8.626;2023-09-30T14:24:37;23.10;40.80
10644;DHT22;5370;50.132;8.626;2023-09-30T14:27:03;23.20;40.60
10644;DHT22;5370;50.132;8.626;2023-09-30T14:29:30;23.30;41.10
10644;DHT22;5370;50.132;8.626;2023-09-30T14:31:55;23.30;41.20
10644;DHT22;5370;50.132;8.626;2023-09-30T14:34:22;23.40;41.10
10644;DHT22;5370;50.132;8.626;2023-09-30T14:36:47;23.40;40.80
10644;DHT22;5370;50.132;8.626;2023-09-30T14:43:12;23.50;40.80
10644;DHT22;5370;50.132;8.626;2023-09-30T14:45:39;23.50;41.00
10644;DHT22;5370;50.132;8.626;2023-09-30T14:48:06;23.60;41.10
10644;DHT22;5370;50.132;8.626;2023-09-30T14:50:32;23.60;40.80
10644;DHT22;5370;50.132;8.626;2023-09-30T14:52:58;23.50;40.80
10644;DHT22;5370;50.132;8.626;2023-09-30T14:55:23;23.50;40.90
10644;DHT22;5370;50.132;8.626;2023-09-30T14:57:49;23.50;40.50
10644;DHT22;5370;50.132;8.626;2023-09-30T15:00:15;23.60;40.70
10644;DHT22;5370;50.132;8.626;2023-09-30T15:02:42;23.50;40.60
10644;DHT22;5370;50.132;8.626;2023-09-30T15:05:07;23.50;40.40
10644;DHT22;5370;50.132;8.626;2023-09-30T15:07:34;23.40;40.50
10644;DHT22;5370;50.132;8.626;2023-09-30T15:09:59;23.20;40.60
10644;DHT22;5370;50.132;8.626;2023-09-30T15:12:25;23.10;40.70
10644;DHT22;5370;50.132;8.626;2023-09-30T15:14:51;22.80;40.60
10644;DHT22;5370;50.132;8.626;2023-09-30T15:17:17;22.60;40.60
10644;DHT22;5370;50.132;8.626;2023-09-30T15:19:43;22.50;41.20
10644;DHT22;5370;50.132;8.626;2023-09-30T15:22:08;22.20;41.70
10644;DHT22;5370;50.132;8.626;2023-09-30T15:24:34;22.00;42.40
10644;DHT22;5370;50.132;8.626;2023-09-30T15:26:59;21.90;43.00
10644;DHT22;5370;50.132;8.626;2023-09-30T15:29:26;21.70;43.10
10644;DHT22;5370;50.132;8.626;2023-09-30T15:31:52;21.50;43.00
10644;DHT22;5370;50.132;8.626;2023-09-30T15:34:18;21.40;43.10
10644;DHT22;5370;50.132;8.626;2023-09-30T15:36:43;21.30;43.50
10644;DHT22;5370;50.132;8.626;2023-09-30T15:39:09;21.10;44.00
10644;DHT22;5370;50.132;8.626;2023-09-30T15:41:35;21.00;44.60
10644;DHT22;5370;50.132;8.626;2023-09-30T15:44:01;20.90;45.20
10644;DHT22;5370;50.132;8.626;2023-09-30T15:46:26;20.80;45.30
10644;DHT22;5370;50.132;8.626;2023-09-30T15:48:52;20.70;45.30
10644;DHT22;5370;50.132;8.626;2023-09-30T15:51:17;20.60;45.30
10644;DHT22;5370;50.132;8.626;2023-09-30T15:53:43;20.50;45.70
10644;DHT22;5370;50.132;8.626;2023-09-30T15:56:09;20.40;46.10
10644;DHT22;5370;50.132;8.626;2023-09-30T15:58:35;20.30;46.50
10644;DHT22;5370;50.132;8.626;2023-09-30T16:01:01;20.20;46.90
10644;DHT22;5370;50.132;8.626;2023-09-30T16:03:26;20.10;47.30
10644;DHT22;5370;50.132;8.626;2023-09-30T16:05:52;20.00;47.60
10644;DHT22;5370;50.132;8.626;2023-09-30T16:08:17;19.90;48.00
10644;DHT22;5370;50.132;8.626;2023-09-30T16:10:44;19.80;48.60
10644;DHT22;5370;50.132;8.626;2023-09-30T16:13:10;19.80;49.20
10644;DHT22;5370;50.132;8.626;2023-09-30T16:15:40;19.70;49.50
10644;DHT22;5370;50.132;8.626;2023-09-30T16:18:06;19.60;49.80
10644;DHT22;5370;50.132;8.626;2023-09-30T16:20:32;19.60;50.10
10644;DHT22;5370;50.132;8.626;2023-09-30T16:22:58;19.50;50.40